sensor_id;sensor_type;location;lat;lon;timestamp;P1;durP1;ratioP1;P2;durP2;ratioP2
12194;SDS011;27023;42.680;23.132;2022-09-03T00:00:50;3.27;;;3.17;;
12194;SDS011;27023;42.680;23.132;2022-09-03T00:03:22;11.00;;;10.63;;
12194;SDS011;27023;42.680;23.132;2022-09-03T00:05:55;5.27;;;5.10;;
12194;SDS011;27023;42.680;23.132;2022-09-03T00:08:32;11.37;;;10.97;;
12194;SDS011;27023;42.680;23.132;2022-09-03T00:11:03;14.20;;;13.70;;
12194;SDS011;27023;42.680;23.132;2022-09-03T00:13:41;9.60;;;9.30;;
12194;SDS011;27023;42.680;23.132;2022-09-03T00:16:11;8.90;;;8.60;;
12194;SDS011;27023;42.680;23.132;2022-09-03T00:18:43;11.23;;;10.83;;
12194;SDS011;27023;42.680;23.132;2022-09-03T00:21:14;10.20;;;9.90;;
12194;SDS011;27023;42.680;23.132;2022-09-03T00:23:47;10.00;;;9.70;;
12194;SDS011;27023;42.680;23.132;2022-09-03T00:26:17;8.07;;;7.83;;
12194;SDS011;27023;42.680;23.132;2022-09-03T00:28:55;2.83;;;2.73;;
12194;SDS011;27023;42.680;23.132;2022-09-03T00:31:28;4.57;;;4.47;;
12194;SDS011;27023;42.680;23.132;2022-09-03T00:34:02;4.60;;;4.50;;
12194;SDS011;27023;42.680;23.132;2022-09-03T00:36:34;8.00;;;7.73;;
12194;SDS011;27023;42.680;23.132;2022-09-03T00:39:07;8.40;;;8.13;;
12194;SDS011;27023;42.680;23.132;2022-09-03T00:41:36;12.87;;;12.37;;
12194;SDS011;27023;42.680;23.132;2022-09-03T00:44:14;13.97;;;13.47;;
12194;SDS011;27023;42.680;23.132;2022-09-03T00:46:51;6.73;;;6.43;;
12194;SDS011;27023;42.680;23.132;2022-09-03T00:49:28;14.50;;;14.00;;
12194;SDS011;27023;42.680;23.132;2022-09-03T00:52:10;14.57;;;14.07;;
12194;SDS011;27023;42.680;23.132;2022-09-03T00:54:45;16.43;;;15.83;;
12194;SDS011;27023;42.680;23.132;2022-09-03T00:57:21;15.17;;;14.67;;
12194;SDS011;27023;42.680;23.132;2022-09-03T00:59:56;15.67;;;15.10;;
12194;SDS011;27023;42.680;23.132;2022-09-03T01:02:30;18.00;;;17.30;;
12194;SDS011;27023;42.680;23.132;2022-09-03T01:05:19;21.97;;;21.07;;
12194;SDS011;27023;42.680;23.132;2022-09-03T01:08:04;16.07;;;15.47;;
12194;SDS011;27023;42.680;23.132;2022-09-03T01:10:45;17.17;;;16.57;;
12194;SDS011;27023;42.680;23.132;2022-09-03T01:13:21;18.77;;;18.07;;
12194;SDS011;27023;42.680;23.132;2022-09-03T01:15:56;19.13;;;18.43;;
12194;SDS011;27023;42.680;23.132;2022-09-03T01:18:33;21.93;;;21.03;;
12194;SDS011;27023;42.680;23.132;2022-09-03T01:21:10;21.93;;;21.03;;
12194;SDS011;27023;42.680;23.132;2022-09-03T01:24:06;21.53;;;20.67;;
12194;SDS011;27023;42.680;23.132;2022-09-03T01:26:54;17.10;;;16.50;;
12194;SDS011;27023;42.680;23.132;2022-09-03T01:29:35;15.27;;;14.77;;
12194;SDS011;27023;42.680;23.132;2022-09-03T01:32:10;14.63;;;14.13;;
12194;SDS011;27023;42.680;23.132;2022-09-03T01:34:48;18.10;;;17.40;;
12194;SDS011;27023;42.680;23.132;2022-09-03T01:37:22;19.37;;;18.57;;
12194;SDS011;27023;42.680;23.132;2022-09-03T01:40:00;19.37;;;18.57;;
12194;SDS011;27023;42.680;23.132;2022-09-03T01:42:36;13.47;;;12.97;;
12194;SDS011;27023;42.680;23.132;2022-09-03T01:45:25;8.60;;;8.37;;
12194;SDS011;27023;42.680;23.132;2022-09-03T01:48:07;11.40;;;11.00;;
12194;SDS011;27023;42.680;23.132;2022-09-03T01:50:47;20.00;;;19.20;;
12194;SDS011;27023;42.680;23.132;2022-09-03T01:53:30;19.50;;;18.70;;
12194;SDS011;27023;42.680;23.132;2022-09-03T01:56:10;23.40;;;22.40;;
12194;SDS011;27023;42.680;23.132;2022-09-03T01:58:46;21.93;;;21.03;;
12194;SDS011;27023;42.680;23.132;2022-09-03T02:01:22;13.17;;;12.77;;
12194;SDS011;27023;42.680;23.132;2022-09-03T02:03:54;18.40;;;17.70;;
12194;SDS011;27023;42.680;23.132;2022-09-03T02:06:24;19.30;;;18.57;;
12194;SDS011;27023;42.680;23.132;2022-09-03T02:08:51;16.53;;;15.93;;
12194;SDS011;27023;42.680;23.132;2022-09-03T02:11:17;19.43;;;18.63;;
12194;SDS011;27023;42.680;23.132;2022-09-03T02:13:46;17.20;;;16.60;;
12194;SDS011;27023;42.680;23.132;2022-09-03T02:16:15;15.97;;;15.37;;
12194;SDS011;27023;42.680;23.132;2022-09-03T02:18:47;15.57;;;15.07;;
12194;SDS011;27023;42.680;23.132;2022-09-03T02:21:17;16.93;;;16.33;;
12194;SDS011;27023;42.680;23.132;2022-09-03T02:23:45;18.53;;;17.83;;
12194;SDS011;27023;42.680;23.132;2022-09-03T02:26:14;1.83;;;1.83;;
12194;SDS011;27023;42.680;23.132;2022-09-03T02:28:43;12.60;;;12.10;;
12194;SDS011;27023;42.680;23.132;2022-09-03T02:31:10;15.33;;;14.83;;
12194;SDS011;27023;42.680;23.132;2022-09-03T02:33:38;14.17;;;13.67;;
12194;SDS011;27023;42.680;23.132;2022-09-03T02:36:09;20.40;;;19.60;;
12194;SDS011;27023;42.680;23.132;2022-09-03T02:38:40;16.43;;;15.83;;
12194;SDS011;27023;42.680;23.132;2022-09-03T02:41:07;19.43;;;18.63;;
12194;SDS011;27023;42.680;23.132;2022-09-03T02:43:53;14.53;;;14.03;;
12194;SDS011;27023;42.680;23.132;2022-09-03T02:46:26;14.43;;;13.93;;
12194;SDS011;27023;42.680;23.132;2022-09-03T02:48:58;13.33;;;12.93;;
12194;SDS011;27023;42.680;23.132;2022-09-03T02:51:26;12.50;;;12.10;;
12194;SDS011;27023;42.680;23.132;2022-09-03T02:53:57;22.17;;;21.27;;
12194;SDS011;27023;42.680;23.132;2022-09-03T02:56:24;21.27;;;20.43;;
12194;SDS011;27023;42.680;23.132;2022-09-03T02:58:51;21.63;;;20.73;;
12194;SDS011;27023;42.680;23.132;2022-09-03T03:01:18;10.97;;;10.67;;
12194;SDS011;27023;42.680;23.132;2022-09-03T03:03:45;14.93;;;14.43;;
12194;SDS011;27023;42.680;23.132;2022-09-03T03:06:12;15.63;;;15.13;;
12194;SDS011;27023;42.680;23.132;2022-09-03T03:08:40;16.77;;;15.73;;
12194;SDS011;27023;42.680;23.132;2022-09-03T03:11:08;20.93;;;20.13;;
12194;SDS011;27023;42.680;23.132;2022-09-03T03:13:35;21.90;;;21.00;;
12194;SDS011;27023;42.680;23.132;2022-09-03T03:16:03;10.90;;;10.50;;
12194;SDS011;27023;42.680;23.132;2022-09-03T03:18:31;24.40;;;23.37;;
12194;SDS011;27023;42.680;23.132;2022-09-03T03:21:02;18.93;;;18.23;;
12194;SDS011;27023;42.680;23.132;2022-09-03T03:23:30;23.17;;;22.17;;
12194;SDS011;27023;42.680;23.132;2022-09-03T03:26:01;22.17;;;21.27;;
12194;SDS011;27023;42.680;23.132;2022-09-03T03:28:29;24.13;;;23.13;;
12194;SDS011;27023;42.680;23.132;2022-09-03T03:30:58;25.27;;;24.17;;
12194;SDS011;27023;42.680;23.132;2022-09-03T03:33:24;20.53;;;19.70;;
12194;SDS011;27023;42.680;23.132;2022-09-03T03:35:51;19.50;;;18.70;;
12194;SDS011;27023;42.680;23.132;2022-09-03T03:38:18;20.97;;;20.13;;
12194;SDS011;27023;42.680;23.132;2022-09-03T03:40:45;23.60;;;22.60;;
12194;SDS011;27023;42.680;23.132;2022-09-03T03:43:13;18.00;;;17.30;;
12194;SDS011;27023;42.680;23.132;2022-09-03T03:45:40;16.13;;;15.53;;
12194;SDS011;27023;42.680;23.132;2022-09-03T03:48:06;16.23;;;15.63;;
12194;SDS011;27023;42.680;23.132;2022-09-03T03:50:33;16.37;;;15.77;;
12194;SDS011;27023;42.680;23.132;2022-09-03T03:53:00;16.07;;;15.47;;
12194;SDS011;27023;42.680;23.132;2022-09-03T03:55:27;18.27;;;17.57;;
12194;SDS011;27023;42.680;23.132;2022-09-03T03:57:53;13.97;;;13.47;;
12194;SDS011;27023;42.680;23.132;2022-09-03T04:00:22;18.70;;;18.00;;
12194;SDS011;27023;42.680;23.132;2022-09-03T04:02:48;1.90;;;1.90;;
12194;SDS011;27023;42.680;23.132;2022-09-03T04:05:15;8.93;;;8.63;;
12194;SDS011;27023;42.680;23.132;2022-09-03T04:07:42;15.63;;;15.03;;
12194;SDS011;27023;42.680;23.132;2022-09-03T04:10:09;15.23;;;14.73;;
12194;SDS011;27023;42.680;23.132;2022-09-03T04:12:35;14.07;;;13.57;;
12194;SDS011;27023;42.680;23.132;2022-09-03T04:15:02;14.53;;;14.03;;
12194;SDS011;27023;42.680;23.132;2022-09-03T04:17:32;15.70;;;15.10;;
12194;SDS011;27023;42.680;23.132;2022-09-03T04:19:58;16.43;;;15.83;;
12194;SDS011;27023;42.680;23.132;2022-09-03T04:22:26;17.60;;;16.90;;
12194;SDS011;27023;42.680;23.132;2022-09-03T04:24:53;13.33;;;12.83;;
12194;SDS011;27023;42.680;23.132;2022-09-03T04:27:20;10.57;;;10.17;;
12194;SDS011;27023;42.680;23.132;2022-09-03T04:29:47;17.77;;;17.07;;
12194;SDS011;27023;42.680;23.132;2022-09-03T04:32:13;13.67;;;13.17;;
12194;SDS011;27023;42.680;23.132;2022-09-03T04:34:59;16.23;;;15.63;;
12194;SDS011;27023;42.680;23.132;2022-09-03T04:37:25;17.23;;;16.60;;
12194;SDS011;27023;42.680;23.132;2022-09-03T04:39:52;14.77;;;14.27;;
12194;SDS011;27023;42.680;23.132;2022-09-03T04:42:19;19.53;;;18.73;;
12194;SDS011;27023;42.680;23.132;2022-09-03T04:44:46;22.00;;;21.10;;
12194;SDS011;27023;42.680;23.132;2022-09-03T04:47:12;15.23;;;14.73;;
12194;SDS011;27023;42.680;23.132;2022-09-03T04:49:39;15.73;;;15.17;;
12194;SDS011;27023;42.680;23.132;2022-09-03T04:52:07;21.97;;;21.07;;
12194;SDS011;27023;42.680;23.132;2022-09-03T04:54:34;14.10;;;13.60;;
12194;SDS011;27023;42.680;23.132;2022-09-03T04:57:01;16.53;;;15.93;;
12194;SDS011;27023;42.680;23.132;2022-09-03T04:59:27;18.43;;;17.73;;
12194;SDS011;27023;42.680;23.132;2022-09-03T05:01:54;27.43;;;26.23;;
12194;SDS011;27023;42.680;23.132;2022-09-03T05:04:21;18.00;;;17.33;;
12194;SDS011;27023;42.680;23.132;2022-09-03T05:06:47;18.67;;;17.97;;
12194;SDS011;27023;42.680;23.132;2022-09-03T05:09:15;22.00;;;21.10;;
12194;SDS011;27023;42.680;23.132;2022-09-03T05:11:42;21.77;;;20.87;;
12194;SDS011;27023;42.680;23.132;2022-09-03T05:14:09;19.30;;;18.50;;
12194;SDS011;27023;42.680;23.132;2022-09-03T05:16:36;14.73;;;14.23;;
12194;SDS011;27023;42.680;23.132;2022-09-03T05:19:03;13.40;;;13.00;;
12194;SDS011;27023;42.680;23.132;2022-09-03T05:21:32;16.20;;;15.60;;
12194;SDS011;27023;42.680;23.132;2022-09-03T05:24:00;14.33;;;13.83;;
12194;SDS011;27023;42.680;23.132;2022-09-03T05:26:29;17.37;;;16.70;;
12194;SDS011;27023;42.680;23.132;2022-09-03T05:28:57;13.20;;;12.70;;
12194;SDS011;27023;42.680;23.132;2022-09-03T05:31:25;16.63;;;16.03;;
12194;SDS011;27023;42.680;23.132;2022-09-03T05:33:54;16.83;;;16.23;;
12194;SDS011;27023;42.680;23.132;2022-09-03T05:36:23;18.20;;;17.50;;
12194;SDS011;27023;42.680;23.132;2022-09-03T05:38:51;3.83;;;3.77;;
12194;SDS011;27023;42.680;23.132;2022-09-03T05:41:19;2.27;;;2.27;;
12194;SDS011;27023;42.680;23.132;2022-09-03T05:43:47;11.60;;;11.20;;
12194;SDS011;27023;42.680;23.132;2022-09-03T05:46:20;19.13;;;18.33;;
12194;SDS011;27023;42.680;23.132;2022-09-03T05:48:52;12.00;;;11.60;;
12194;SDS011;27023;42.680;23.132;2022-09-03T05:51:22;13.13;;;12.63;;
12194;SDS011;27023;42.680;23.132;2022-09-03T05:53:49;5.60;;;5.43;;
12194;SDS011;27023;42.680;23.132;2022-09-03T05:56:18;7.90;;;7.70;;
12194;SDS011;27023;42.680;23.132;2022-09-03T05:58:48;13.33;;;12.83;;
12194;SDS011;27023;42.680;23.132;2022-09-03T06:01:17;2.20;;;2.17;;
12194;SDS011;27023;42.680;23.132;2022-09-03T06:03:45;2.30;;;2.30;;
12194;SDS011;27023;42.680;23.132;2022-09-03T06:06:20;2.10;;;2.10;;
12194;SDS011;27023;42.680;23.132;2022-09-03T06:08:49;10.23;;;9.87;;
12194;SDS011;27023;42.680;23.132;2022-09-03T06:11:17;2.10;;;2.10;;
12194;SDS011;27023;42.680;23.132;2022-09-03T06:13:44;13.03;;;12.53;;
12194;SDS011;27023;42.680;23.132;2022-09-03T06:16:12;10.13;;;9.77;;
12194;SDS011;27023;42.680;23.132;2022-09-03T06:18:39;2.67;;;2.67;;
12194;SDS011;27023;42.680;23.132;2022-09-03T06:21:06;9.83;;;9.53;;
12194;SDS011;27023;42.680;23.132;2022-09-03T06:23:33;9.23;;;8.93;;
12194;SDS011;27023;42.680;23.132;2022-09-03T06:26:01;11.40;;;11.00;;
12194;SDS011;27023;42.680;23.132;2022-09-03T06:28:30;2.63;;;2.63;;
12194;SDS011;27023;42.680;23.132;2022-09-03T06:30:58;2.30;;;2.30;;
12194;SDS011;27023;42.680;23.132;2022-09-03T06:33:27;11.13;;;10.73;;
12194;SDS011;27023;42.680;23.132;2022-09-03T06:35:55;12.33;;;11.87;;
12194;SDS011;27023;42.680;23.132;2022-09-03T06:38:23;2.30;;;2.30;;
12194;SDS011;27023;42.680;23.132;2022-09-03T06:40:51;13.53;;;13.03;;
12194;SDS011;27023;42.680;23.132;2022-09-03T06:43:18;13.90;;;13.40;;
12194;SDS011;27023;42.680;23.132;2022-09-03T06:45:51;13.50;;;13.00;;
12194;SDS011;27023;42.680;23.132;2022-09-03T06:48:19;13.13;;;12.70;;
12194;SDS011;27023;42.680;23.132;2022-09-03T06:50:53;13.37;;;12.97;;
12194;SDS011;27023;42.680;23.132;2022-09-03T06:53:21;14.30;;;13.80;;
12194;SDS011;27023;42.680;23.132;2022-09-03T06:55:52;13.97;;;13.53;;
12194;SDS011;27023;42.680;23.132;2022-09-03T06:58:20;6.80;;;6.57;;
12194;SDS011;27023;42.680;23.132;2022-09-03T07:00:48;10.90;;;10.57;;
12194;SDS011;27023;42.680;23.132;2022-09-03T07:03:16;13.43;;;12.97;;
12194;SDS011;27023;42.680;23.132;2022-09-03T07:05:43;12.30;;;11.83;;
12194;SDS011;27023;42.680;23.132;2022-09-03T07:08:11;10.33;;;10.00;;
12194;SDS011;27023;42.680;23.132;2022-09-03T07:10:38;11.30;;;10.90;;
12194;SDS011;27023;42.680;23.132;2022-09-03T07:13:07;2.40;;;2.40;;
12194;SDS011;27023;42.680;23.132;2022-09-03T07:15:34;9.17;;;8.90;;
12194;SDS011;27023;42.680;23.132;2022-09-03T07:18:01;11.83;;;11.50;;
12194;SDS011;27023;42.680;23.132;2022-09-03T07:20:28;11.87;;;11.50;;
12194;SDS011;27023;42.680;23.132;2022-09-03T07:22:55;12.47;;;12.07;;
12194;SDS011;27023;42.680;23.132;2022-09-03T07:25:23;13.23;;;12.77;;
12194;SDS011;27023;42.680;23.132;2022-09-03T07:27:51;13.73;;;13.27;;
12194;SDS011;27023;42.680;23.132;2022-09-03T07:30:18;11.80;;;11.40;;
12194;SDS011;27023;42.680;23.132;2022-09-03T07:32:44;13.80;;;13.33;;
12194;SDS011;27023;42.680;23.132;2022-09-03T07:35:12;15.30;;;14.80;;
12194;SDS011;27023;42.680;23.132;2022-09-03T07:37:39;17.67;;;16.97;;
12194;SDS011;27023;42.680;23.132;2022-09-03T07:40:07;12.67;;;12.17;;
12194;SDS011;27023;42.680;23.132;2022-09-03T07:42:36;8.63;;;8.43;;
12194;SDS011;27023;42.680;23.132;2022-09-03T07:45:05;1.87;;;1.87;;
12194;SDS011;27023;42.680;23.132;2022-09-03T07:47:34;2.03;;;1.97;;
12194;SDS011;27023;42.680;23.132;2022-09-03T07:50:01;7.20;;;6.93;;
12194;SDS011;27023;42.680;23.132;2022-09-03T07:52:29;12.17;;;11.73;;
12194;SDS011;27023;42.680;23.132;2022-09-03T07:54:56;4.30;;;4.20;;
12194;SDS011;27023;42.680;23.132;2022-09-03T07:57:23;1.80;;;1.80;;
12194;SDS011;27023;42.680;23.132;2022-09-03T07:59:51;1.80;;;1.80;;
12194;SDS011;27023;42.680;23.132;2022-09-03T08:02:18;2.30;;;2.30;;
12194;SDS011;27023;42.680;23.132;2022-09-03T08:04:44;3.07;;;3.00;;
12194;SDS011;27023;42.680;23.132;2022-09-03T08:07:11;6.87;;;6.77;;
12194;SDS011;27023;42.680;23.132;2022-09-03T08:09:38;2.57;;;2.47;;
12194;SDS011;27023;42.680;23.132;2022-09-03T08:12:05;6.93;;;6.73;;
12194;SDS011;27023;42.680;23.132;2022-09-03T08:14:31;8.13;;;7.83;;
12194;SDS011;27023;42.680;23.132;2022-09-03T08:16:59;9.80;;;9.43;;
12194;SDS011;27023;42.680;23.132;2022-09-03T08:19:26;2.30;;;2.30;;
12194;SDS011;27023;42.680;23.132;2022-09-03T08:21:53;4.50;;;3.30;;
12194;SDS011;27023;42.680;23.132;2022-09-03T08:24:19;2.60;;;2.53;;
12194;SDS011;27023;42.680;23.132;2022-09-03T08:26:48;4.20;;;4.00;;
12194;SDS011;27023;42.680;23.132;2022-09-03T08:29:15;5.23;;;5.13;;
12194;SDS011;27023;42.680;23.132;2022-09-03T08:31:42;2.93;;;2.83;;
12194;SDS011;27023;42.680;23.132;2022-09-03T08:34:25;2.50;;;2.50;;
12194;SDS011;27023;42.680;23.132;2022-09-03T08:36:52;5.57;;;5.37;;
12194;SDS011;27023;42.680;23.132;2022-09-03T08:39:18;2.30;;;2.30;;
12194;SDS011;27023;42.680;23.132;2022-09-03T08:44:44;2.03;;;2.03;;
12194;SDS011;27023;42.680;23.132;2022-09-03T08:47:15;2.30;;;2.30;;
12194;SDS011;27023;42.680;23.132;2022-09-03T08:49:49;2.37;;;2.37;;
12194;SDS011;27023;42.680;23.132;2022-09-03T08:52:21;1.80;;;1.80;;
12194;SDS011;27023;42.680;23.132;2022-09-03T08:54:53;2.27;;;2.17;;
12194;SDS011;27023;42.680;23.132;2022-09-03T08:57:27;2.63;;;2.53;;
12194;SDS011;27023;42.680;23.132;2022-09-03T09:00:02;2.00;;;2.00;;
12194;SDS011;27023;42.680;23.132;2022-09-03T09:02:31;2.23;;;2.13;;
12194;SDS011;27023;42.680;23.132;2022-09-03T09:05:11;4.53;;;4.17;;
12194;SDS011;27023;42.680;23.132;2022-09-03T09:07:43;3.20;;;2.90;;
12194;SDS011;27023;42.680;23.132;2022-09-03T09:10:19;2.37;;;2.37;;
12194;SDS011;27023;42.680;23.132;2022-09-03T09:12:55;3.03;;;2.93;;
12194;SDS011;27023;42.680;23.132;2022-09-03T09:15:33;2.57;;;2.57;;
12194;SDS011;27023;42.680;23.132;2022-09-03T09:18:09;3.10;;;3.00;;
12194;SDS011;27023;42.680;23.132;2022-09-03T09:20:44;2.13;;;2.13;;
12194;SDS011;27023;42.680;23.132;2022-09-03T09:23:14;2.77;;;2.77;;
12194;SDS011;27023;42.680;23.132;2022-09-03T09:25:50;3.00;;;2.83;;
12194;SDS011;27023;42.680;23.132;2022-09-03T09:28:20;2.43;;;2.40;;
12194;SDS011;27023;42.680;23.132;2022-09-03T09:30:48;3.03;;;2.93;;
12194;SDS011;27023;42.680;23.132;2022-09-03T09:33:17;2.40;;;2.30;;
12194;SDS011;27023;42.680;23.132;2022-09-03T09:35:46;2.73;;;2.63;;
12194;SDS011;27023;42.680;23.132;2022-09-03T09:38:13;3.10;;;2.93;;
12194;SDS011;27023;42.680;23.132;2022-09-03T09:40:41;3.57;;;3.40;;
12194;SDS011;27023;42.680;23.132;2022-09-03T09:43:10;2.78;;;2.67;;
12194;SDS011;27023;42.680;23.132;2022-09-03T09:45:40;1.83;;;1.83;;
12194;SDS011;27023;42.680;23.132;2022-09-03T09:48:12;2.45;;;2.45;;
12194;SDS011;27023;42.680;23.132;2022-09-03T09:50:43;2.33;;;2.33;;
12194;SDS011;27023;42.680;23.132;2022-09-03T09:53:11;2.75;;;2.65;;
12194;SDS011;27023;42.680;23.132;2022-09-03T09:55:50;2.90;;;2.80;;
12194;SDS011;27023;42.680;23.132;2022-09-03T09:58:19;2.42;;;2.42;;
12194;SDS011;27023;42.680;23.132;2022-09-03T10:00:54;2.33;;;2.33;;
12194;SDS011;27023;42.680;23.132;2022-09-03T10:03:22;2.63;;;2.55;;
12194;SDS011;27023;42.680;23.132;2022-09-03T10:05:56;3.00;;;2.90;;
12194;SDS011;27023;42.680;23.132;2022-09-03T10:08:27;2.80;;;2.58;;
12194;SDS011;27023;42.680;23.132;2022-09-03T10:10:54;2.45;;;2.35;;
12194;SDS011;27023;42.680;23.132;2022-09-03T10:13:21;2.53;;;2.43;;
12194;SDS011;27023;42.680;23.132;2022-09-03T10:15:57;2.40;;;2.40;;
12194;SDS011;27023;42.680;23.132;2022-09-03T10:18:32;2.30;;;2.30;;
12194;SDS011;27023;42.680;23.132;2022-09-03T10:21:06;2.10;;;2.10;;
12194;SDS011;27023;42.680;23.132;2022-09-03T10:23:42;2.10;;;2.10;;
12194;SDS011;27023;42.680;23.132;2022-09-03T10:26:18;2.67;;;2.57;;
12194;SDS011;27023;42.680;23.132;2022-09-03T10:28:55;2.10;;;2.10;;
12194;SDS011;27023;42.680;23.132;2022-09-03T10:31:35;2.40;;;2.37;;
12194;SDS011;27023;42.680;23.132;2022-09-03T10:34:13;2.40;;;2.30;;
12194;SDS011;27023;42.680;23.132;2022-09-03T10:36:46;3.15;;;3.05;;
12194;SDS011;27023;42.680;23.132;2022-09-03T10:39:28;3.80;;;3.60;;
12194;SDS011;27023;42.680;23.132;2022-09-03T10:42:23;3.92;;;3.75;;
12194;SDS011;27023;42.680;23.132;2022-09-03T10:45:01;3.25;;;3.13;;
12194;SDS011;27023;42.680;23.132;2022-09-03T10:47:47;2.17;;;2.13;;
12194;SDS011;27023;42.680;23.132;2022-09-03T10:50:33;2.42;;;2.33;;
12194;SDS011;27023;42.680;23.132;2022-09-03T10:53:10;3.30;;;3.30;;
12194;SDS011;27023;42.680;23.132;2022-09-03T10:55:48;2.50;;;2.40;;
12194;SDS011;27023;42.680;23.132;2022-09-03T10:58:30;2.53;;;2.42;;
12194;SDS011;27023;42.680;23.132;2022-09-03T11:01:09;1.65;;;1.65;;
12194;SDS011;27023;42.680;23.132;2022-09-03T11:03:47;2.22;;;2.20;;
12194;SDS011;27023;42.680;23.132;2022-09-03T11:06:21;2.60;;;2.60;;
12194;SDS011;27023;42.680;23.132;2022-09-03T11:08:53;1.90;;;1.90;;
12194;SDS011;27023;42.680;23.132;2022-09-03T11:11:27;2.05;;;1.95;;
12194;SDS011;27023;42.680;23.132;2022-09-03T11:13:59;1.95;;;1.90;;
12194;SDS011;27023;42.680;23.132;2022-09-03T11:16:33;2.53;;;2.35;;
12194;SDS011;27023;42.680;23.132;2022-09-03T11:19:06;2.83;;;2.72;;
12194;SDS011;27023;42.680;23.132;2022-09-03T11:21:36;3.85;;;3.55;;
12194;SDS011;27023;42.680;23.132;2022-09-03T11:24:07;2.22;;;2.13;;
12194;SDS011;27023;42.680;23.132;2022-09-03T11:26:40;1.63;;;1.55;;
12194;SDS011;27023;42.680;23.132;2022-09-03T11:29:10;2.08;;;1.98;;
12194;SDS011;27023;42.680;23.132;2022-09-03T11:31:44;5.30;;;3.00;;
12194;SDS011;27023;42.680;23.132;2022-09-03T11:34:25;2.05;;;1.98;;
12194;SDS011;27023;42.680;23.132;2022-09-03T11:37:03;2.50;;;2.40;;
12194;SDS011;27023;42.680;23.132;2022-09-03T11:39:33;2.35;;;2.25;;
12194;SDS011;27023;42.680;23.132;2022-09-03T11:42:03;2.13;;;2.13;;
12194;SDS011;27023;42.680;23.132;2022-09-03T11:44:36;2.90;;;2.83;;
12194;SDS011;27023;42.680;23.132;2022-09-03T11:47:12;2.35;;;2.25;;
12194;SDS011;27023;42.680;23.132;2022-09-03T11:49:44;2.47;;;2.38;;
12194;SDS011;27023;42.680;23.132;2022-09-03T11:52:23;2.00;;;2.00;;
12194;SDS011;27023;42.680;23.132;2022-09-03T11:54:51;2.40;;;2.30;;
12194;SDS011;27023;42.680;23.132;2022-09-03T11:57:22;2.20;;;2.10;;
12194;SDS011;27023;42.680;23.132;2022-09-03T11:59:52;2.25;;;2.15;;
12194;SDS011;27023;42.680;23.132;2022-09-03T12:02:24;2.95;;;2.80;;
12194;SDS011;27023;42.680;23.132;2022-09-03T12:07:58;2.42;;;2.33;;
12194;SDS011;27023;42.680;23.132;2022-09-03T12:10:37;2.05;;;1.98;;
12194;SDS011;27023;42.680;23.132;2022-09-03T12:16:09;2.50;;;2.40;;
12194;SDS011;27023;42.680;23.132;2022-09-03T12:18:47;2.97;;;2.88;;
12194;SDS011;27023;42.680;23.132;2022-09-03T12:21:17;2.58;;;2.47;;
12194;SDS011;27023;42.680;23.132;2022-09-03T12:23:45;2.78;;;2.67;;
12194;SDS011;27023;42.680;23.132;2022-09-03T12:26:14;2.67;;;2.63;;
12194;SDS011;27023;42.680;23.132;2022-09-03T12:28:45;3.05;;;2.95;;
12194;SDS011;27023;42.680;23.132;2022-09-03T12:31:15;2.65;;;2.55;;
12194;SDS011;27023;42.680;23.132;2022-09-03T12:33:47;2.65;;;2.63;;
12194;SDS011;27023;42.680;23.132;2022-09-03T12:36:15;2.05;;;2.03;;
12194;SDS011;27023;42.680;23.132;2022-09-03T12:38:42;2.45;;;2.40;;
12194;SDS011;27023;42.680;23.132;2022-09-03T12:41:18;2.42;;;2.35;;
12194;SDS011;27023;42.680;23.132;2022-09-03T12:43:52;2.55;;;2.45;;
12194;SDS011;27023;42.680;23.132;2022-09-03T12:46:24;1.60;;;1.58;;
12194;SDS011;27023;42.680;23.132;2022-09-03T12:48:55;1.33;;;1.33;;
12194;SDS011;27023;42.680;23.132;2022-09-03T12:51:30;1.90;;;1.85;;
12194;SDS011;27023;42.680;23.132;2022-09-03T12:53:57;1.70;;;1.67;;
12194;SDS011;27023;42.680;23.132;2022-09-03T12:56:25;2.13;;;2.03;;
12194;SDS011;27023;42.680;23.132;2022-09-03T12:58:59;2.55;;;2.45;;
12194;SDS011;27023;42.680;23.132;2022-09-03T13:01:30;2.47;;;2.47;;
12194;SDS011;27023;42.680;23.132;2022-09-03T13:04:01;3.13;;;2.90;;
12194;SDS011;27023;42.680;23.132;2022-09-03T13:06:32;3.22;;;3.13;;
12194;SDS011;27023;42.680;23.132;2022-09-03T13:09:17;2.58;;;2.58;;
12194;SDS011;27023;42.680;23.132;2022-09-03T13:11:47;2.15;;;2.08;;
12194;SDS011;27023;42.680;23.132;2022-09-03T13:14:17;3.15;;;3.05;;
12194;SDS011;27023;42.680;23.132;2022-09-03T13:19:37;2.22;;;2.22;;
12194;SDS011;27023;42.680;23.132;2022-09-03T13:22:15;3.00;;;2.90;;
12194;SDS011;27023;42.680;23.132;2022-09-03T13:24:56;2.58;;;2.58;;
12194;SDS011;27023;42.680;23.132;2022-09-03T13:27:35;1.85;;;1.85;;
12194;SDS011;27023;42.680;23.132;2022-09-03T13:30:09;1.85;;;1.85;;
12194;SDS011;27023;42.680;23.132;2022-09-03T13:32:41;2.58;;;2.58;;
12194;SDS011;27023;42.680;23.132;2022-09-03T13:35:17;2.28;;;2.28;;
12194;SDS011;27023;42.680;23.132;2022-09-03T13:37:51;2.65;;;2.55;;
12194;SDS011;27023;42.680;23.132;2022-09-03T13:40:23;2.60;;;2.50;;
12194;SDS011;27023;42.680;23.132;2022-09-03T13:43:00;2.25;;;2.15;;
12194;SDS011;27023;42.680;23.132;2022-09-03T13:45:36;1.98;;;1.98;;
12194;SDS011;27023;42.680;23.132;2022-09-03T13:48:08;2.28;;;2.28;;
12194;SDS011;27023;42.680;23.132;2022-09-03T13:50:58;1.55;;;1.55;;
12194;SDS011;27023;42.680;23.132;2022-09-03T13:53:43;2.13;;;2.03;;
12194;SDS011;27023;42.680;23.132;2022-09-03T13:56:20;2.10;;;2.08;;
12194;SDS011;27023;42.680;23.132;2022-09-03T13:58:55;2.33;;;2.22;;
12194;SDS011;27023;42.680;23.132;2022-09-03T14:01:36;2.58;;;2.38;;
12194;SDS011;27023;42.680;23.132;2022-09-03T14:04:10;1.45;;;1.45;;
12194;SDS011;27023;42.680;23.132;2022-09-03T14:06:45;1.63;;;1.55;;
12194;SDS011;27023;42.680;23.132;2022-09-03T14:09:22;2.30;;;2.30;;
12194;SDS011;27023;42.680;23.132;2022-09-03T14:12:00;2.22;;;2.20;;
12194;SDS011;27023;42.680;23.132;2022-09-03T14:14:34;2.60;;;2.50;;
12194;SDS011;27023;42.680;23.132;2022-09-03T14:17:11;1.40;;;1.40;;
12194;SDS011;27023;42.680;23.132;2022-09-03T14:19:43;2.22;;;2.13;;
12194;SDS011;27023;42.680;23.132;2022-09-03T14:22:14;1.98;;;1.98;;
12194;SDS011;27023;42.680;23.132;2022-09-03T14:24:46;2.15;;;2.05;;
12194;SDS011;27023;42.680;23.132;2022-09-03T14:27:24;2.47;;;2.38;;
12194;SDS011;27023;42.680;23.132;2022-09-03T14:29:53;1.75;;;1.65;;
12194;SDS011;27023;42.680;23.132;2022-09-03T14:32:28;2.63;;;2.53;;
12194;SDS011;27023;42.680;23.132;2022-09-03T14:38:17;1.83;;;1.80;;
12194;SDS011;27023;42.680;23.132;2022-09-03T14:41:02;3.78;;;1.95;;
12194;SDS011;27023;42.680;23.132;2022-09-03T14:43:51;1.98;;;1.98;;
12194;SDS011;27023;42.680;23.132;2022-09-03T14:46:34;2.13;;;2.03;;
12194;SDS011;27023;42.680;23.132;2022-09-03T14:49:19;1.85;;;1.75;;
12194;SDS011;27023;42.680;23.132;2022-09-03T14:52:10;2.40;;;2.40;;
12194;SDS011;27023;42.680;23.132;2022-09-03T14:54:57;1.55;;;1.55;;
12194;SDS011;27023;42.680;23.132;2022-09-03T14:57:44;2.22;;;2.13;;
12194;SDS011;27023;42.680;23.132;2022-09-03T15:00:32;1.98;;;1.88;;
12194;SDS011;27023;42.680;23.132;2022-09-03T15:03:12;1.83;;;1.77;;
12194;SDS011;27023;42.680;23.132;2022-09-03T15:08:53;1.48;;;1.48;;